Time;durP1;ratioP1;P1;durP2;ratioP2;P2;SDS_P1;SDS_P2;PMS_P1;PMS_P2;Temp;Humidity;BMP_temperature;BMP_pressure;BME280_temperature;BME280_humidity;BME280_pressure;Samples;Min_cycle;Max_cycle;Signal;HPM_P1;HPM_P2
2022/11/09 00:01:06;;;;;;;3.33;1.40;;;13.80;99.90;;;;;;5057868;28;20238;-56
2022/11/09 00:03:32;;;;;;;4.27;1.73;;;13.80;99.90;;;;;;5068008;28;20209;-55
2022/11/09 00:05:59;;;;;;;4.43;1.40;;;13.80;99.90;;;;;;5067157;28;20709;-56
2022/11/09 00:08:27;;;;;;;2.50;1.10;;;13.90;99.90;;;;;;5059485;28;20242;-56
2022/11/09 00:10:54;;;;;;;4.97;1.37;;;13.90;99.90;;;;;;5070270;28;20661;-56
2022/11/09 00:13:21;;;;;;;4.60;1.77;;;13.90;99.90;;;;;;5062896;28;20628;-56
2022/11/09 00:15:48;;;;;;;3.30;1.50;;;13.90;99.90;;;;;;5053764;28;20247;-55
2022/11/09 00:18:15;;;;;;;8.03;1.93;;;13.90;99.90;;;;;;5063767;28;20206;-56
2022/11/09 00:20:42;;;;;;;5.67;1.43;;;14.00;99.90;;;;;;5064154;28;20240;-61
2022/11/09 00:23:14;;;;;;;6.07;1.30;;;14.10;99.90;;;;;;5068968;28;20206;-55
2022/11/09 00:25:40;;;;;;;5.57;1.50;;;14.00;99.90;;;;;;5059108;28;20346;-56
2022/11/09 00:28:07;;;;;;;7.20;1.87;;;14.10;99.90;;;;;;5057814;28;20198;-55
2022/11/09 00:30:34;;;;;;;5.53;1.60;;;14.10;99.90;;;;;;5064597;28;20221;-55
2022/11/09 00:33:01;;;;;;;4.10;1.80;;;14.10;99.90;;;;;;5061504;28;20201;-55
2022/11/09 00:35:28;;;;;;;7.00;1.87;;;14.20;99.90;;;;;;5064011;28;20738;-56
2022/11/09 00:37:54;;;;;;;6.63;2.23;;;14.20;99.90;;;;;;5070485;28;20562;-56
2022/11/09 00:40:21;;;;;;;3.73;1.53;;;14.20;99.90;;;;;;5070377;28;20202;-56
2022/11/09 00:42:48;;;;;;;6.90;1.60;;;14.00;99.90;;;;;;5061252;28;20219;-55
2022/11/09 00:45:15;;;;;;;4.93;1.37;;;13.90;99.90;;;;;;5058836;28;20260;-56
2022/11/09 00:47:43;;;;;;;6.97;1.40;;;13.80;99.90;;;;;;5063140;28;20225;-57
2022/11/09 00:50:10;;;;;;;6.43;1.80;;;13.70;99.90;;;;;;5060054;28;20206;-55
2022/11/09 00:52:37;;;;;;;3.50;1.43;;;13.50;99.90;;;;;;5068161;28;20197;-55
2022/11/09 00:55:04;;;;;;;5.37;1.67;;;13.40;99.90;;;;;;5070372;28;20201;-56
2022/11/09 00:57:31;;;;;;;2.07;1.20;;;13.20;99.90;;;;;;5069743;28;20204;-56
2022/11/09 00:59:57;;;;;;;3.07;0.93;;;13.00;99.90;;;;;;5066140;28;20202;-56
2022/11/09 01:02:24;;;;;;;2.83;1.13;;;13.00;99.90;;;;;;5069210;28;20207;-55
2022/11/09 01:04:51;;;;;;;2.50;1.17;;;12.90;99.90;;;;;;5067019;28;20221;-55
2022/11/09 01:07:18;;;;;;;4.20;1.50;;;12.90;99.90;;;;;;5061300;28;20727;-56
2022/11/09 01:09:44;;;;;;;6.50;1.67;;;13.00;99.90;;;;;;5062467;28;20287;-57
2022/11/09 01:12:11;;;;;;;4.57;1.30;;;13.00;99.90;;;;;;5069965;28;20297;-56
2022/11/09 01:14:38;;;;;;;4.20;1.47;;;13.10;99.90;;;;;;5065755;28;20202;-55
2022/11/09 01:17:05;;;;;;;4.50;1.40;;;13.10;99.90;;;;;;5066557;28;20197;-55
2022/11/09 01:19:31;;;;;;;6.10;1.70;;;13.10;99.90;;;;;;5065135;28;20617;-55
2022/11/09 01:21:58;;;;;;;5.53;1.50;;;13.10;99.90;;;;;;5069434;28;20247;-55
2022/11/09 01:24:25;;;;;;;4.47;1.70;;;13.10;99.90;;;;;;5069409;28;20276;-56
2022/11/09 01:26:51;;;;;;;6.93;1.73;;;13.10;99.90;;;;;;5065614;28;20209;-55
2022/11/09 01:29:18;;;;;;;4.87;1.63;;;13.00;99.90;;;;;;5067044;28;20225;-55
2022/11/09 01:31:47;;;;;;;5.10;1.47;;;13.10;99.90;;;;;;5068612;28;20215;-55
2022/11/09 01:34:16;;;;;;;5.10;1.63;;;13.00;99.90;;;;;;5067453;28;20251;-56
2022/11/09 01:36:43;;;;;;;4.77;1.63;;;13.00;99.90;;;;;;5066215;28;20191;-56
2022/11/09 01:39:09;;;;;;;5.67;1.57;;;13.00;99.90;;;;;;5068394;28;20376;-56
2022/11/09 01:41:36;;;;;;;4.80;1.37;;;13.00;99.90;;;;;;5069508;28;20216;-56
2022/11/09 01:44:12;;;;;;;5.50;1.40;;;12.90;99.90;;;;;;5067937;28;20402;-55
2022/11/09 01:46:53;;;;;;;5.80;2.33;;;12.90;99.90;;;;;;5069462;28;20297;-56
2022/11/09 01:49:30;;;;;;;4.37;1.70;;;12.90;99.90;;;;;;5059548;28;20205;-56
2022/11/09 01:52:18;;;;;;;5.70;2.57;;;12.90;99.90;;;;;;5067392;28;20206;-55
2022/11/09 01:54:49;;;;;;;7.47;2.03;;;12.90;99.90;;;;;;5068858;28;20225;-55
2022/11/09 01:57:23;;;;;;;5.13;1.70;;;12.90;99.90;;;;;;5068950;28;20200;-56
2022/11/09 01:59:56;;;;;;;4.43;1.47;;;12.90;99.90;;;;;;5067014;28;20272;-56
2022/11/09 02:02:23;;;;;;;3.57;1.40;;;12.90;99.90;;;;;;5070262;28;20199;-55
2022/11/09 02:04:55;;;;;;;1.73;1.17;;;12.90;99.90;;;;;;5066709;28;20627;-56
2022/11/09 02:07:23;;;;;;;8.40;2.13;;;12.90;99.90;;;;;;5060153;28;20213;-55
2022/11/09 02:09:53;;;;;;;5.83;1.63;;;12.90;99.90;;;;;;5066505;28;20223;-55
2022/11/09 02:12:21;;;;;;;3.50;1.30;;;12.90;99.90;;;;;;5068191;28;20727;-56
2022/11/09 02:14:52;;;;;;;4.97;1.70;;;12.90;99.90;;;;;;5066962;28;20204;-55
2022/11/09 02:17:19;;;;;;;6.23;2.00;;;13.00;99.90;;;;;;5065654;28;20207;-55
2022/11/09 02:19:46;;;;;;;3.33;1.60;;;13.00;99.90;;;;;;5066355;28;20203;-56
2022/11/09 02:22:14;;;;;;;8.97;1.93;;;12.90;99.90;;;;;;5067823;28;20257;-55
2022/11/09 02:24:40;;;;;;;4.90;1.47;;;12.90;99.90;;;;;;5065832;28;20199;-57
2022/11/09 02:27:07;;;;;;;3.20;1.40;;;13.00;99.90;;;;;;5066438;28;20545;-55
2022/11/09 02:29:38;;;;;;;3.53;2.03;;;13.00;99.90;;;;;;5065527;28;20207;-55
2022/11/09 02:32:22;;;;;;;5.97;1.70;;;12.90;99.90;;;;;;5067909;28;20320;-55
2022/11/09 02:34:49;;;;;;;5.50;1.40;;;13.00;99.90;;;;;;5066260;28;20206;-55
2022/11/09 02:37:27;;;;;;;5.93;1.33;;;13.10;99.90;;;;;;5068099;28;20676;-56
2022/11/09 02:39:56;;;;;;;3.10;1.10;;;13.10;99.90;;;;;;5067990;28;20195;-55
2022/11/09 02:42:23;;;;;;;8.37;2.10;;;13.10;99.90;;;;;;5067977;28;20221;-56
2022/11/09 02:44:57;;;;;;;6.20;1.70;;;13.10;99.90;;;;;;5064328;28;20289;-55
2022/11/09 02:47:24;;;;;;;3.87;1.40;;;13.10;99.90;;;;;;5068057;28;20601;-55
2022/11/09 02:49:51;;;;;;;2.27;1.03;;;13.10;99.90;;;;;;5066817;28;20216;-55
2022/11/09 02:52:18;;;;;;;6.50;1.60;;;13.10;99.90;;;;;;5063787;28;20218;-55
2022/11/09 02:54:45;;;;;;;5.70;1.30;;;13.10;99.90;;;;;;5057527;28;20690;-55
2022/11/09 02:57:12;;;;;;;6.23;1.27;;;13.10;99.90;;;;;;5065170;28;20216;-56
2022/11/09 02:59:38;;;;;;;9.90;1.77;;;13.20;99.90;;;;;;5066371;28;20538;-59
2022/11/09 03:02:05;;;;;;;4.43;1.33;;;13.20;99.90;;;;;;5066269;28;20268;-55
2022/11/09 03:04:32;;;;;;;3.10;1.27;;;13.10;99.90;;;;;;5062460;28;20214;-56
2022/11/09 03:06:59;;;;;;;7.40;1.00;;;13.20;99.90;;;;;;5063200;28;20226;-55
2022/11/09 03:09:26;;;;;;;4.00;1.30;;;13.20;99.90;;;;;;5062420;28;20368;-55
2022/11/09 03:11:52;;;;;;;3.53;1.37;;;13.10;99.90;;;;;;5062273;28;20206;-56
2022/11/09 03:14:19;;;;;;;4.67;1.20;;;13.10;99.90;;;;;;5066356;28;20610;-56
2022/11/09 03:16:46;;;;;;;4.30;1.30;;;13.10;99.90;;;;;;5064701;28;20193;-55
2022/11/09 03:19:16;;;;;;;5.73;1.70;;;13.20;99.90;;;;;;5061678;28;20628;-56
2022/11/09 03:21:43;;;;;;;3.43;1.50;;;13.20;99.90;;;;;;5061878;28;20246;-56
2022/11/09 03:24:10;;;;;;;3.90;1.23;;;13.20;99.90;;;;;;5060317;28;20284;-56
2022/11/09 03:26:37;;;;;;;5.67;1.07;;;13.20;99.90;;;;;;5061903;28;20229;-56
2022/11/09 03:29:03;;;;;;;5.90;1.17;;;13.10;99.90;;;;;;5065710;28;20334;-56
2022/11/09 03:31:30;;;;;;;3.37;1.07;;;13.20;99.90;;;;;;5066708;28;20615;-56
2022/11/09 03:33:57;;;;;;;8.77;1.70;;;13.20;99.90;;;;;;5062461;28;20195;-56
2022/11/09 03:36:24;;;;;;;3.80;1.10;;;13.20;99.90;;;;;;5061958;28;20548;-55
2022/11/09 03:38:50;;;;;;;6.87;1.47;;;13.20;99.90;;;;;;5065217;28;20705;-55
2022/11/09 03:41:17;;;;;;;7.80;1.17;;;13.20;99.90;;;;;;5066086;28;20199;-55
2022/11/09 03:43:44;;;;;;;4.30;1.20;;;13.20;99.90;;;;;;5065557;28;20203;-56
2022/11/09 03:46:11;;;;;;;6.37;1.33;;;13.10;99.90;;;;;;5064382;28;20194;-55
2022/11/09 03:48:37;;;;;;;6.77;1.40;;;13.10;99.90;;;;;;5065622;28;20213;-55
2022/11/09 03:51:04;;;;;;;10.83;1.60;;;13.00;99.90;;;;;;5065446;28;20583;-56
2022/11/09 03:53:31;;;;;;;4.50;1.50;;;13.00;99.90;;;;;;5067478;28;20666;-56
2022/11/09 03:55:58;;;;;;;6.67;1.80;;;12.90;99.90;;;;;;5066668;28;20240;-56
2022/11/09 03:58:25;;;;;;;5.77;1.20;;;12.90;99.90;;;;;;5066006;28;20237;-55
2022/11/09 04:00:51;;;;;;;3.60;1.00;;;12.80;99.90;;;;;;5065947;28;20751;-55
2022/11/09 04:03:18;;;;;;;5.33;1.10;;;12.80;99.90;;;;;;5065676;28;20199;-55
2022/11/09 04:05:45;;;;;;;4.77;1.13;;;12.80;99.90;;;;;;5063241;28;20256;-55
2022/11/09 04:08:12;;;;;;;6.83;1.30;;;12.80;99.90;;;;;;5064767;28;20199;-59
2022/11/09 04:10:39;;;;;;;3.93;1.07;;;12.80;99.90;;;;;;5065277;28;20658;-56
2022/11/09 04:13:06;;;;;;;7.17;1.20;;;12.80;99.90;;;;;;5070160;28;20261;-56
2022/11/09 04:15:33;;;;;;;5.50;1.27;;;12.80;99.90;;;;;;5064675;28;20192;-55
2022/11/09 04:18:01;;;;;;;6.37;1.30;;;12.80;99.90;;;;;;5079403;28;20205;-56
2022/11/09 04:20:29;;;;;;;7.57;1.70;;;12.90;99.90;;;;;;5065138;28;20273;-62
2022/11/09 04:23:01;;;;;;;4.13;1.20;;;12.90;99.90;;;;;;5064674;28;20194;-57
2022/11/09 04:25:32;;;;;;;7.83;1.80;;;12.80;99.90;;;;;;5066058;28;20212;-57
2022/11/09 04:28:00;;;;;;;4.10;1.63;;;12.80;99.90;;;;;;5064444;28;20201;-56
2022/11/09 04:30:28;;;;;;;6.83;1.63;;;12.80;99.90;;;;;;5062827;28;20198;-55
2022/11/09 04:32:56;;;;;;;5.17;1.33;;;12.80;99.90;;;;;;5065662;28;20212;-56
2022/11/09 04:35:23;;;;;;;5.33;1.50;;;12.80;99.90;;;;;;5064170;28;20193;-55
2022/11/09 04:37:58;;;;;;;6.73;1.50;;;12.80;99.90;;;;;;5064202;28;20214;-56
2022/11/09 04:40:28;;;;;;;3.10;1.10;;;12.80;99.90;;;;;;5065356;28;20200;-56
2022/11/09 04:42:59;;;;;;;4.53;1.70;;;12.70;99.90;;;;;;5065949;28;20556;-55
2022/11/09 04:45:26;;;;;;;6.57;1.50;;;12.70;99.90;;;;;;5063113;28;20209;-55
2022/11/09 04:48:00;;;;;;;8.97;1.63;;;12.70;99.90;;;;;;5063851;28;20203;-56
2022/11/09 04:50:27;;;;;;;5.47;1.60;;;12.70;99.90;;;;;;5061529;28;20206;-55
2022/11/09 04:53:02;;;;;;;8.70;1.73;;;12.70;99.90;;;;;;5067624;28;20212;-55
2022/11/09 04:55:45;;;;;;;7.50;2.53;;;12.70;99.90;;;;;;5064695;28;20214;-55
2022/11/09 04:58:11;;;;;;;6.20;1.63;;;12.60;99.90;;;;;;5064431;28;20201;-55
2022/11/09 05:00:39;;;;;;;5.70;1.63;;;12.60;99.90;;;;;;5063678;28;20587;-56
2022/11/09 05:03:06;;;;;;;8.63;1.53;;;12.60;99.90;;;;;;5065825;28;20639;-56
2022/11/09 05:05:35;;;;;;;5.60;1.33;;;12.60;99.90;;;;;;5062163;28;20213;-55
2022/11/09 05:08:02;;;;;;;4.20;1.30;;;12.60;99.90;;;;;;5063465;28;20835;-56
2022/11/09 05:10:29;;;;;;;5.67;1.60;;;12.60;99.90;;;;;;5066059;28;20223;-56
2022/11/09 05:13:14;;;;;;;6.30;1.77;;;12.70;99.90;;;;;;5064326;28;20203;-55
2022/11/09 05:15:41;;;;;;;7.30;1.50;;;12.70;99.90;;;;;;5067434;28;20206;-55
2022/11/09 05:18:09;;;;;;;6.47;1.50;;;12.70;99.90;;;;;;5067461;28;20546;-55
2022/11/09 05:20:36;;;;;;;11.10;2.03;;;12.70;99.90;;;;;;5063146;28;20233;-56
2022/11/09 05:25:49;;;;;;;7.00;1.67;;;12.70;99.90;;;;;;5064999;28;20208;-55
2022/11/09 05:28:16;;;;;;;7.70;1.80;;;12.70;99.90;;;;;;5061467;28;20654;-55
2022/11/09 05:30:42;;;;;;;8.77;1.60;;;12.70;99.90;;;;;;5061236;28;20628;-56
2022/11/09 05:33:09;;;;;;;4.90;1.67;;;12.60;99.90;;;;;;5063306;28;20210;-56
2022/11/09 05:35:36;;;;;;;7.63;1.53;;;12.60;99.90;;;;;;5061409;28;20212;-55
2022/11/09 05:38:03;;;;;;;6.77;1.90;;;12.60;99.90;;;;;;5064548;28;20288;-56
2022/11/09 05:40:31;;;;;;;6.80;1.60;;;12.60;99.90;;;;;;5065116;28;20280;-56
2022/11/09 05:42:57;;;;;;;10.47;2.10;;;12.50;99.90;;;;;;5068954;28;20204;-56
2022/11/09 05:45:24;;;;;;;4.97;1.40;;;12.50;99.90;;;;;;5067691;28;20232;-55
2022/11/09 05:48:09;;;;;;;7.17;1.73;;;12.50;99.90;;;;;;5066045;28;20290;-56
2022/11/09 05:50:36;;;;;;;5.90;1.60;;;12.40;99.90;;;;;;5064238;28;20293;-55
2022/11/09 05:53:04;;;;;;;7.83;1.70;;;12.40;99.90;;;;;;5068904;28;20218;-55
2022/11/09 05:55:30;;;;;;;8.23;1.83;;;12.40;99.90;;;;;;5069538;28;20651;-55
2022/11/09 05:57:57;;;;;;;5.97;1.70;;;12.40;99.90;;;;;;5068622;28;20200;-55
2022/11/09 06:00:25;;;;;;;9.63;1.77;;;12.30;99.90;;;;;;5066032;28;20206;-55
2022/11/09 06:02:52;;;;;;;8.47;1.60;;;12.30;99.90;;;;;;5067290;28;20378;-56
2022/11/09 06:05:20;;;;;;;8.83;2.30;;;12.30;99.90;;;;;;5067406;28;20322;-56
2022/11/09 06:07:47;;;;;;;4.60;1.30;;;12.20;99.90;;;;;;5068845;28;20200;-55
2022/11/09 06:10:13;;;;;;;4.87;1.50;;;12.20;99.90;;;;;;5057129;28;20311;-56
2022/11/09 06:12:40;;;;;;;4.53;1.33;;;12.20;99.90;;;;;;5064664;28;20217;-56
2022/11/09 06:15:07;;;;;;;5.20;1.70;;;12.20;99.90;;;;;;5062922;28;20224;-57
2022/11/09 06:17:34;;;;;;;5.67;1.30;;;12.10;99.90;;;;;;5063632;28;20203;-54
2022/11/09 06:20:03;;;;;;;10.47;1.63;;;12.10;99.90;;;;;;5062873;28;20603;-59
2022/11/09 06:22:29;;;;;;;7.43;1.30;;;12.10;99.90;;;;;;5061197;28;20236;-56
2022/11/09 06:24:56;;;;;;;9.30;2.70;;;12.10;99.90;;;;;;5062768;28;20198;-58
2022/11/09 06:27:23;;;;;;;5.27;1.60;;;12.10;99.90;;;;;;5062072;28;20203;-55
2022/11/09 06:29:50;;;;;;;4.60;1.33;;;12.10;99.90;;;;;;5062914;28;20309;-55
2022/11/09 06:32:17;;;;;;;8.03;1.70;;;12.10;99.90;;;;;;5064344;28;20232;-54
2022/11/09 06:34:47;;;;;;;4.30;1.23;;;12.10;99.90;;;;;;5063470;28;20636;-55
2022/11/09 06:37:16;;;;;;;5.33;1.40;;;12.10;99.90;;;;;;5063949;28;20189;-57
2022/11/09 06:39:44;;;;;;;7.00;1.70;;;12.10;99.90;;;;;;5061247;28;21196;-55
2022/11/09 06:42:11;;;;;;;9.83;1.90;;;12.10;99.90;;;;;;5064172;28;20199;-53
2022/11/09 06:44:37;;;;;;;5.20;1.80;;;12.10;99.90;;;;;;5065676;28;20285;-56
2022/11/09 06:47:04;;;;;;;5.47;1.70;;;12.10;99.90;;;;;;5066845;28;20211;-54
2022/11/09 06:49:31;;;;;;;4.17;1.50;;;12.10;99.90;;;;;;5065647;28;20211;-57
2022/11/09 06:51:58;;;;;;;7.60;2.03;;;12.00;99.90;;;;;;5068567;28;20212;-54
2022/11/09 06:54:24;;;;;;;3.50;1.40;;;12.00;99.90;;;;;;5068239;28;20231;-55
2022/11/09 06:56:53;;;;;;;5.60;1.90;;;12.00;99.90;;;;;;5066665;28;20194;-55
2022/11/09 06:59:21;;;;;;;6.23;1.63;;;12.00;99.90;;;;;;5053879;28;20205;-55
2022/11/09 07:01:47;;;;;;;9.33;2.10;;;12.00;99.90;;;;;;5057341;28;20201;-55
2022/11/09 07:04:15;;;;;;;8.47;1.80;;;12.00;99.90;;;;;;5067378;28;20231;-56
2022/11/09 07:06:42;;;;;;;5.20;1.30;;;11.90;99.90;;;;;;5063900;28;20201;-55
2022/11/09 07:09:10;;;;;;;6.90;1.97;;;12.00;99.90;;;;;;5065190;28;20199;-56
2022/11/09 07:11:37;;;;;;;5.47;1.50;;;11.90;99.90;;;;;;5067926;28;20256;-55
2022/11/09 07:14:04;;;;;;;7.93;1.60;;;11.90;99.90;;;;;;5068089;28;20290;-55
2022/11/09 07:16:31;;;;;;;5.77;1.43;;;12.00;99.90;;;;;;5061213;28;20614;-55
2022/11/09 07:18:58;;;;;;;4.00;1.70;;;12.00;99.90;;;;;;5063045;28;20294;-55
2022/11/09 07:21:25;;;;;;;7.50;1.73;;;12.00;99.90;;;;;;5063546;28;20330;-55
2022/11/09 07:23:52;;;;;;;6.87;1.80;;;12.00;99.90;;;;;;5064214;28;20244;-55
2022/11/09 07:26:19;;;;;;;5.57;1.90;;;12.10;99.90;;;;;;5062098;28;20207;-55
2022/11/09 07:28:45;;;;;;;7.40;1.80;;;12.20;99.90;;;;;;5068399;28;20857;-56
2022/11/09 07:31:12;;;;;;;10.23;1.50;;;12.20;99.90;;;;;;5060094;28;20204;-56
2022/11/09 07:33:39;;;;;;;9.10;1.80;;;12.30;99.90;;;;;;5060529;28;20217;-55
2022/11/09 07:36:06;;;;;;;8.57;1.77;;;12.30;99.90;;;;;;5064463;28;20565;-55
2022/11/09 07:38:33;;;;;;;4.20;1.90;;;12.40;99.90;;;;;;5062530;28;20283;-56
2022/11/09 07:41:01;;;;;;;8.40;1.80;;;12.40;99.90;;;;;;5062637;28;20283;-55
2022/11/09 07:43:28;;;;;;;6.97;1.60;;;12.30;99.90;;;;;;5069682;28;20224;-56
2022/11/09 07:45:55;;;;;;;8.90;1.70;;;12.40;99.90;;;;;;5065623;28;20208;-55
2022/11/09 07:48:22;;;;;;;8.33;1.77;;;12.30;99.90;;;;;;5065306;28;20201;-55
2022/11/09 07:50:49;;;;;;;7.50;1.53;;;12.30;99.90;;;;;;5066499;28;20197;-56
2022/11/09 07:53:16;;;;;;;9.97;1.90;;;12.30;99.90;;;;;;5066514;28;20210;-56
2022/11/09 07:55:43;;;;;;;2.20;1.10;;;12.30;99.90;;;;;;5066672;28;20692;-56
2022/11/09 07:58:14;;;;;;;5.00;1.33;;;12.30;99.90;;;;;;5064133;28;20217;-55
2022/11/09 08:00:42;;;;;;;9.40;2.07;;;12.30;99.90;;;;;;5059533;28;20621;-56
2022/11/09 08:03:09;;;;;;;4.20;1.40;;;12.40;99.90;;;;;;4703871;28;10001994;-55
2022/11/09 08:05:37;;;;;;;6.47;1.40;;;12.40;99.90;;;;;;5047926;28;20199;-56
2022/11/09 08:08:06;;;;;;;9.63;1.77;;;12.40;99.90;;;;;;5067147;28;20201;-55
2022/11/09 08:10:35;;;;;;;6.87;1.80;;;12.40;99.90;;;;;;5063174;28;20309;-55
2022/11/09 08:13:08;;;;;;;8.27;1.50;;;12.40;99.90;;;;;;5070333;28;20215;-55
2022/11/09 08:15:37;;;;;;;6.97;2.07;;;12.50;99.90;;;;;;5063524;28;20196;-56
2022/11/09 08:18:06;;;;;;;12.50;2.43;;;12.50;99.90;;;;;;5065400;28;20266;-55
2022/11/09 08:20:33;;;;;;;7.10;3.33;;;12.60;99.90;;;;;;5067444;28;20196;-55
2022/11/09 08:23:01;;;;;;;9.07;2.10;;;12.70;99.90;;;;;;5066086;28;20322;-55
2022/11/09 08:25:32;;;;;;;8.93;1.57;;;12.70;99.90;;;;;;5065258;28;20217;-55
2022/11/09 08:27:59;;;;;;;8.20;1.47;;;12.80;99.90;;;;;;5059586;28;20201;-56
2022/11/09 08:30:26;;;;;;;6.97;1.50;;;12.80;99.90;;;;;;5059379;28;20203;-55
2022/11/09 08:32:53;;;;;;;6.57;1.43;;;12.80;99.90;;;;;;5058873;28;22118;-54
2022/11/09 08:35:23;;;;;;;3.97;2.40;;;12.90;99.90;;;;;;5056619;28;20212;-55
2022/11/09 08:37:51;;;;;;;3.13;1.37;;;12.90;99.90;;;;;;5065059;28;20536;-55
2022/11/09 08:40:21;;;;;;;5.83;1.40;;;12.90;99.90;;;;;;5068145;28;20203;-55
2022/11/09 08:42:48;;;;;;;7.77;1.50;;;12.90;99.90;;;;;;5049269;28;20308;-54
2022/11/09 08:45:14;;;;;;;9.53;1.70;;;12.90;99.90;;;;;;5053469;28;20210;-55
2022/11/09 08:47:42;;;;;;;4.90;1.43;;;12.90;99.90;;;;;;5058224;28;20209;-55
2022/11/09 08:50:11;;;;;;;5.97;1.43;;;12.90;99.90;;;;;;5064988;28;20213;-53
2022/11/09 08:52:39;;;;;;;7.47;1.60;;;12.90;99.90;;;;;;5064191;28;20232;-55
2022/11/09 08:55:07;;;;;;;7.13;1.50;;;13.00;99.90;;;;;;5059596;28;20832;-54
2022/11/09 08:57:33;;;;;;;7.83;1.70;;;13.00;99.90;;;;;;5062211;28;20204;-54
2022/11/09 09:00:00;;;;;;;6.40;1.63;;;13.00;99.90;;;;;;5058774;28;20550;-55
2022/11/09 09:02:27;;;;;;;7.47;1.73;;;13.10;99.90;;;;;;5061886;28;20202;-54
2022/11/09 09:04:54;;;;;;;8.13;1.73;;;13.10;99.90;;;;;;5055141;28;20188;-54
2022/11/09 09:07:21;;;;;;;3.83;1.40;;;13.10;99.90;;;;;;5062230;28;20626;-54
2022/11/09 09:09:48;;;;;;;9.87;1.60;;;13.10;99.90;;;;;;5061779;28;20278;-55
2022/11/09 09:12:15;;;;;;;8.47;1.70;;;13.10;99.90;;;;;;5061782;28;20295;-55
2022/11/09 09:14:41;;;;;;;5.50;1.80;;;13.10;99.90;;;;;;5064135;28;20209;-55
2022/11/09 09:17:08;;;;;;;6.57;1.50;;;13.10;99.90;;;;;;5066052;28;20197;-55
2022/11/09 09:19:35;;;;;;;7.80;2.03;;;13.20;99.90;;;;;;5058491;28;20258;-55
2022/11/09 09:22:02;;;;;;;6.43;1.80;;;13.30;99.90;;;;;;5066569;28;20236;-55
2022/11/09 09:24:29;;;;;;;9.30;2.50;;;13.30;99.90;;;;;;5061334;28;20227;-55
2022/11/09 09:26:56;;;;;;;2.97;1.30;;;13.40;99.90;;;;;;5057792;28;20203;-55
2022/11/09 09:29:23;;;;;;;5.03;1.60;;;13.30;99.90;;;;;;5055959;28;20209;-54
2022/11/09 09:31:50;;;;;;;8.27;1.93;;;13.30;99.90;;;;;;5064193;28;20303;-55
2022/11/09 09:34:16;;;;;;;6.53;1.67;;;13.30;99.90;;;;;;5060719;28;20694;-55
2022/11/09 09:36:43;;;;;;;10.30;2.10;;;13.30;99.90;;;;;;5059791;28;20206;-55
2022/11/09 09:39:14;;;;;;;6.93;1.83;;;13.40;99.90;;;;;;5064984;28;20197;-55
2022/11/09 09:42:01;;;;;;;3.47;1.57;;;13.40;99.90;;;;;;5063996;28;20209;-54
2022/11/09 09:44:53;;;;;;;4.43;1.60;;;13.60;99.90;;;;;;5064067;28;20649;-55
2022/11/09 09:47:32;;;;;;;8.30;1.40;;;13.70;99.90;;;;;;5074702;28;20227;-54
2022/11/09 09:50:19;;;;;;;6.37;1.67;;;13.60;99.90;;;;;;5064157;28;20282;-55
2022/11/09 09:52:57;;;;;;;5.97;1.50;;;13.70;99.90;;;;;;5066518;28;20227;-55
2022/11/09 09:55:49;;;;;;;6.43;1.60;;;13.50;99.90;;;;;;5065367;28;20198;-55
2022/11/09 09:58:23;;;;;;;5.80;1.67;;;13.60;99.90;;;;;;5063098;28;20194;-55
2022/11/09 10:00:56;;;;;;;11.00;2.53;;;13.50;99.90;;;;;;5058299;28;20213;-54
2022/11/09 10:03:23;;;;;;;8.27;1.83;;;13.50;99.90;;;;;;5063459;28;20209;-55
2022/11/09 10:06:26;;;;;;;6.60;1.67;;;13.60;99.90;;;;;;5066783;28;20196;-55
2022/11/09 10:09:02;;;;;;;6.73;2.00;;;13.60;99.90;;;;;;5061135;28;20286;-53
2022/11/09 10:11:53;;;;;;;3.83;1.20;;;13.60;99.90;;;;;;5060901;28;20223;-55
2022/11/09 10:14:45;;;;;;;8.43;1.50;;;13.60;99.90;;;;;;5057212;28;20212;-55
2022/11/09 10:17:44;;;;;;;6.30;1.93;;;13.70;99.90;;;;;;5057437;28;20236;-55
2022/11/09 10:20:32;;;;;;;11.03;1.90;;;13.60;99.90;;;;;;5032026;28;20221;-54
2022/11/09 10:23:17;;;;;;;9.07;1.67;;;13.60;99.90;;;;;;5056638;28;20226;-55
2022/11/09 10:25:46;;;;;;;6.57;1.50;;;13.60;99.90;;;;;;5060436;28;20206;-54
2022/11/09 10:28:32;;;;;;;6.47;1.40;;;13.60;99.90;;;;;;5059565;28;20191;-55
2022/11/09 10:31:20;;;;;;;6.90;1.97;;;13.60;99.90;;;;;;5060419;28;20206;-53
2022/11/09 10:33:58;;;;;;;3.20;1.20;;;13.60;99.90;;;;;;5056962;28;20566;-55
2022/11/09 10:36:36;;;;;;;5.77;1.60;;;13.70;99.90;;;;;;5055631;28;20294;-55
2022/11/09 10:39:03;;;;;;;3.33;1.23;;;13.70;99.90;;;;;;5054496;28;20642;-55
2022/11/09 10:41:41;;;;;;;5.20;1.40;;;13.80;99.90;;;;;;5055332;28;20199;-54
2022/11/09 10:44:16;;;;;;;4.37;1.20;;;13.90;99.90;;;;;;5053327;28;20214;-55
2022/11/09 10:47:11;;;;;;;7.00;1.90;;;13.80;99.90;;;;;;5054887;28;20241;-54
2022/11/09 10:49:39;;;;;;;6.83;2.00;;;13.80;99.90;;;;;;5054738;28;20540;-55
2022/11/09 10:52:31;;;;;;;5.23;1.43;;;13.80;99.90;;;;;;5060960;28;20207;-55
2022/11/09 10:55:22;;;;;;;4.63;1.30;;;13.80;99.90;;;;;;5050708;28;20233;-55
2022/11/09 10:58:00;;;;;;;7.30;1.87;;;13.70;99.90;;;;;;5058706;28;20665;-55
2022/11/09 11:00:27;;;;;;;5.67;1.30;;;13.70;99.90;;;;;;5059520;28;20240;-55
2022/11/09 11:02:55;;;;;;;4.60;1.13;;;13.70;99.90;;;;;;5057357;28;20202;-55
2022/11/09 11:05:25;;;;;;;4.73;1.20;;;13.80;99.90;;;;;;5053248;28;20199;-55
2022/11/09 11:07:52;;;;;;;10.10;1.70;;;14.00;99.90;;;;;;5054873;28;20195;-54
2022/11/09 11:10:20;;;;;;;5.43;1.50;;;13.90;99.90;;;;;;5061415;28;20215;-55
2022/11/09 11:13:16;;;;;;;7.57;2.67;;;13.90;99.90;;;;;;5040339;28;20642;-55
2022/11/09 11:15:42;;;;;;;4.93;1.37;;;14.10;99.90;;;;;;5050176;28;20588;-55
2022/11/09 11:18:22;;;;;;;4.63;1.40;;;13.90;99.90;;;;;;5055050;28;20201;-55
2022/11/09 11:21:13;;;;;;;7.57;1.57;;;13.90;99.90;;;;;;5047492;28;20203;-56
2022/11/09 11:24:09;;;;;;;4.23;1.53;;;14.00;99.90;;;;;;5056707;28;20722;-54
2022/11/09 11:26:51;;;;;;;4.40;1.30;;;13.90;99.90;;;;;;5055479;28;20372;-55
2022/11/09 11:29:17;;;;;;;6.07;1.90;;;13.80;99.90;;;;;;5057442;28;20226;-55
2022/11/09 11:31:44;;;;;;;6.33;1.97;;;13.80;99.90;;;;;;5057125;28;20297;-55
2022/11/09 11:34:14;;;;;;;5.23;1.30;;;13.90;99.90;;;;;;5061214;28;20218;-59
2022/11/09 11:37:29;;;;;;;3.13;1.30;;;14.00;99.90;;;;;;5056637;28;20200;-58
2022/11/09 11:39:58;;;;;;;7.23;1.47;;;13.90;99.90;;;;;;5057369;28;20206;-55
2022/11/09 11:42:57;;;;;;;8.83;1.70;;;13.90;99.90;;;;;;5055840;28;20219;-55
2022/11/09 11:45:43;;;;;;;2.10;1.30;;;13.90;99.90;;;;;;5051090;28;20203;-60
2022/11/09 11:48:24;;;;;;;9.73;1.53;;;13.80;99.90;;;;;;5054765;28;20575;-54
2022/11/09 11:50:57;;;;;;;5.73;1.07;;;13.90;99.90;;;;;;5051572;28;20196;-55
2022/11/09 11:53:48;;;;;;;6.03;1.40;;;13.80;99.90;;;;;;5059005;28;20207;-54
2022/11/09 11:56:43;;;;;;;7.03;1.60;;;13.90;99.90;;;;;;5056055;28;21028;-55
2022/11/09 11:59:28;;;;;;;4.70;1.60;;;13.90;99.90;;;;;;5056246;28;20616;-56
2022/11/09 12:02:15;;;;;;;7.20;1.20;;;13.70;99.90;;;;;;5063451;28;20211;-55
2022/11/09 12:05:00;;;;;;;6.37;1.30;;;13.60;99.90;;;;;;5061391;28;20294;-57
2022/11/09 12:07:50;;;;;;;8.63;1.40;;;13.60;99.90;;;;;;5061851;28;20214;-57
2022/11/09 12:10:32;;;;;;;7.67;1.70;;;13.50;99.90;;;;;;5062432;28;20223;-55
2022/11/09 12:13:33;;;;;;;4.73;1.43;;;13.50;99.90;;;;;;5061906;28;20203;-55
2022/11/09 12:16:12;;;;;;;5.50;1.20;;;13.60;99.90;;;;;;5054467;28;20757;-55
2022/11/09 12:18:55;;;;;;;6.37;1.53;;;13.70;99.90;;;;;;5061555;28;20293;-55
2022/11/09 12:22:03;;;;;;;5.53;1.70;;;13.80;99.90;;;;;;5060830;28;20191;-55
2022/11/09 12:24:32;;;;;;;5.67;1.40;;;13.90;99.90;;;;;;5056689;28;20701;-55
2022/11/09 12:27:44;;;;;;;5.97;1.20;;;13.90;99.90;;;;;;5064386;28;20202;-55
2022/11/09 12:30:23;;;;;;;5.27;1.40;;;14.40;99.90;;;;;;5059122;28;20560;-55
2022/11/09 12:33:18;;;;;;;4.37;1.47;;;14.60;99.90;;;;;;5061212;28;20203;-54
2022/11/09 12:35:59;;;;;;;5.60;1.30;;;14.60;99.90;;;;;;5062069;28;20227;-55
2022/11/09 12:38:36;;;;;;;8.83;1.27;;;14.90;99.90;;;;;;5058646;28;20802;-55
2022/11/09 12:41:12;;;;;;;3.43;1.20;;;14.80;99.90;;;;;;5054865;28;20191;-55
2022/11/09 12:43:52;;;;;;;6.63;1.40;;;14.80;99.90;;;;;;5057074;28;20611;-55
2022/11/09 12:46:23;;;;;;;6.33;1.03;;;15.10;99.90;;;;;;5061696;28;20331;-56
2022/11/09 12:48:52;;;;;;;5.07;1.10;;;15.40;99.90;;;;;;5059558;28;20709;-54
2022/11/09 12:51:20;;;;;;;5.07;1.10;;;15.30;99.90;;;;;;5063008;28;20196;-55
2022/11/09 12:53:47;;;;;;;5.67;0.97;;;15.50;99.90;;;;;;5059928;28;20217;-55
2022/11/09 12:56:19;;;;;;;4.03;0.80;;;15.30;99.90;;;;;;5051759;28;20334;-55
2022/11/09 12:58:46;;;;;;;3.07;1.20;;;15.20;99.90;;;;;;5061112;28;20868;-55
2022/11/09 13:01:33;;;;;;;2.83;0.90;;;15.20;99.90;;;;;;5060768;28;20269;-57
2022/11/09 13:04:04;;;;;;;6.67;1.43;;;15.20;99.90;;;;;;5060033;28;20787;-55
2022/11/09 13:06:33;;;;;;;1.30;0.60;;;15.50;99.90;;;;;;5058671;28;20223;-55
2022/11/09 13:09:15;;;;;;;5.20;1.10;;;15.40;99.90;;;;;;5054393;28;20278;-54